Time;durP1;ratioP1;P1;durP2;ratioP2;P2;SDS_P1;SDS_P2;PMS_P1;PMS_P2;Temp;Humidity;BMP_temperature;BMP_pressure;BME280_temperature;BME280_humidity;BME280_pressure;Samples;Min_cycle;Max_cycle;Signal;HPM_P1;HPM_P2
2022/09/23 00:01:20;;;;;;;3.63;2.92;;;;;;;;;;10174621;28;20052;-60
2022/09/23 00:06:17;;;;;;;4.07;3.30;;;;;;;;;;10173057;28;20060;-60
2022/09/23 00:11:30;;;;;;;4.18;3.30;;;;;;;;;;10174690;28;20132;-60
2022/09/23 00:16:27;;;;;;;3.88;3.03;;;;;;;;;;10173899;28;20093;-60
2022/09/23 00:21:21;;;;;;;4.70;3.28;;;;;;;;;;10187328;28;20044;-60
2022/09/23 00:26:17;;;;;;;4.72;2.63;;;;;;;;;;10184906;28;20044;-60
2022/09/23 00:31:21;;;;;;;7.47;2.78;;;;;;;;;;10161409;28;20060;-60
2022/09/23 00:36:17;;;;;;;2.55;2.35;;;;;;;;;;10142384;28;20135;-59
2022/09/23 00:41:14;;;;;;;5.18;2.80;;;;;;;;;;10145763;28;20462;-59
2022/09/23 00:46:09;;;;;;;2.75;2.53;;;;;;;;;;10152521;28;20048;-59
2022/09/23 00:51:04;;;;;;;3.40;3.10;;;;;;;;;;10135392;28;20381;-60
2022/09/23 00:56:02;;;;;;;3.30;2.90;;;;;;;;;;10152367;28;20140;-60
2022/09/23 01:01:16;;;;;;;5.13;3.10;;;;;;;;;;10111975;28;20045;-61
2022/09/23 01:06:11;;;;;;;4.53;2.72;;;;;;;;;;10137306;28;20068;-61
2022/09/23 01:11:27;;;;;;;7.43;4.30;;;;;;;;;;10151167;28;20047;-61
2022/09/23 01:16:33;;;;;;;13.25;3.90;;;;;;;;;;10145224;28;20293;-61
2022/09/23 01:21:37;;;;;;;4.88;3.10;;;;;;;;;;10133651;28;20057;-62
2022/09/23 01:26:48;;;;;;;7.35;4.05;;;;;;;;;;10152201;28;20106;-61
2022/09/23 01:32:02;;;;;;;4.28;3.72;;;;;;;;;;10159595;28;20457;-61
2022/09/23 01:37:24;;;;;;;3.95;3.58;;;;;;;;;;10111380;28;20534;-61
2022/09/23 01:42:28;;;;;;;4.28;3.70;;;;;;;;;;10158259;28;20063;-61
2022/09/23 01:47:26;;;;;;;4.68;4.20;;;;;;;;;;10150712;28;20064;-61
2022/09/23 01:52:38;;;;;;;4.73;4.23;;;;;;;;;;10151557;28;20045;-61
2022/09/23 01:57:52;;;;;;;5.40;4.85;;;;;;;;;;10158509;28;20056;-61
2022/09/23 02:02:51;;;;;;;5.55;3.78;;;;;;;;;;10120288;28;20444;-61
2022/09/23 02:08:02;;;;;;;5.90;4.95;;;;;;;;;;10162055;28;20051;-61
2022/09/23 02:12:59;;;;;;;6.32;4.57;;;;;;;;;;10132214;28;20051;-61
2022/09/23 02:18:00;;;;;;;6.53;5.75;;;;;;;;;;10157763;28;20388;-61
2022/09/23 02:23:07;;;;;;;7.43;5.55;;;;;;;;;;10150314;28;20045;-61
2022/09/23 02:28:24;;;;;;;8.05;6.18;;;;;;;;;;10140087;28;20052;-61
2022/09/23 02:33:23;;;;;;;11.40;5.90;;;;;;;;;;10134837;28;20131;-62
2022/09/23 02:38:34;;;;;;;6.72;5.50;;;;;;;;;;10155444;28;20063;-61
2022/09/23 02:43:52;;;;;;;6.43;5.03;;;;;;;;;;10158786;28;20060;-61
2022/09/23 02:49:04;;;;;;;6.47;4.07;;;;;;;;;;10159840;28;20135;-61
2022/09/23 02:54:18;;;;;;;5.80;4.78;;;;;;;;;;10156310;28;20055;-61
2022/09/23 02:59:12;;;;;;;9.40;6.38;;;;;;;;;;10165845;28;20485;-62
2022/09/23 03:04:13;;;;;;;6.75;5.97;;;;;;;;;;10173871;28;20131;-61
2022/09/23 03:09:18;;;;;;;6.22;5.60;;;;;;;;;;10182512;28;20066;-62
2022/09/23 03:14:33;;;;;;;7.30;6.20;;;;;;;;;;10167379;28;20069;-61
2022/09/23 03:19:56;;;;;;;8.18;6.35;;;;;;;;;;10186216;28;20073;-61
2022/09/23 03:24:51;;;;;;;7.60;6.07;;;;;;;;;;10159341;28;20056;-61
2022/09/23 03:29:47;;;;;;;9.40;8.23;;;;;;;;;;10185180;28;20059;-61
2022/09/23 03:34:42;;;;;;;10.45;9.23;;;;;;;;;;10167898;28;20506;-61
2022/09/23 03:40:00;;;;;;;9.27;8.40;;;;;;;;;;10168700;28;20047;-61
2022/09/23 03:44:56;;;;;;;9.77;5.53;;;;;;;;;;10141701;28;20059;-63
2022/09/23 03:49:50;;;;;;;7.55;6.50;;;;;;;;;;10158593;28;21753;-62
2022/09/23 03:54:45;;;;;;;7.25;6.28;;;;;;;;;;10186712;28;20056;-62
2022/09/23 03:59:39;;;;;;;8.32;5.93;;;;;;;;;;10180990;28;20052;-62
2022/09/23 04:04:35;;;;;;;7.43;6.72;;;;;;;;;;10151885;28;20036;-62
2022/09/23 04:09:28;;;;;;;6.25;5.65;;;;;;;;;;10172489;28;20055;-62
2022/09/23 04:14:23;;;;;;;7.50;6.80;;;;;;;;;;10166336;28;20075;-63
2022/09/23 04:19:16;;;;;;;7.25;6.55;;;;;;;;;;10170047;28;20037;-62
2022/09/23 04:24:10;;;;;;;7.97;6.95;;;;;;;;;;10173700;28;20082;-62
2022/09/23 04:29:04;;;;;;;9.55;7.07;;;;;;;;;;10167103;28;20060;-63
2022/09/23 04:33:59;;;;;;;9.90;5.55;;;;;;;;;;10184104;28;20074;-62
2022/09/23 04:38:51;;;;;;;7.30;6.00;;;;;;;;;;10183638;28;20044;-61
2022/09/23 04:43:46;;;;;;;8.57;6.05;;;;;;;;;;10183884;28;20098;-62
2022/09/23 04:48:40;;;;;;;7.25;6.55;;;;;;;;;;10183323;28;20048;-62
2022/09/23 04:53:36;;;;;;;10.30;6.97;;;;;;;;;;10180767;28;20052;-62
2022/09/23 04:58:29;;;;;;;9.73;6.28;;;;;;;;;;10170332;28;20139;-61
2022/09/23 05:03:24;;;;;;;7.97;5.97;;;;;;;;;;10178671;28;20444;-60
2022/09/23 05:08:20;;;;;;;7.03;6.22;;;;;;;;;;10160336;28;20056;-61
2022/09/23 05:13:17;;;;;;;9.85;6.22;;;;;;;;;;10187575;28;20414;-62
2022/09/23 05:18:11;;;;;;;6.72;5.60;;;;;;;;;;10190020;28;20097;-62
2022/09/23 05:23:04;;;;;;;8.07;5.45;;;;;;;;;;10179711;28;20058;-64
2022/09/23 05:27:58;;;;;;;6.70;6.03;;;;;;;;;;10178584;28;20053;-63
2022/09/23 05:32:51;;;;;;;6.80;5.43;;;;;;;;;;10187714;28;20093;-65
2022/09/23 05:37:45;;;;;;;7.30;5.72;;;;;;;;;;10161004;28;20419;-66
2022/09/23 05:42:40;;;;;;;7.80;5.97;;;;;;;;;;10162268;28;20056;-65
2022/09/23 05:47:33;;;;;;;10.45;7.25;;;;;;;;;;10179815;28;20063;-64
2022/09/23 05:52:27;;;;;;;14.20;8.32;;;;;;;;;;10166682;28;20055;-64
2022/09/23 05:57:22;;;;;;;9.02;7.30;;;;;;;;;;10189796;28;20048;-65
2022/09/23 06:02:18;;;;;;;7.38;6.68;;;;;;;;;;10161134;28;20384;-64
2022/09/23 06:07:12;;;;;;;14.15;8.43;;;;;;;;;;10175201;28;20499;-64
2022/09/23 06:12:06;;;;;;;9.18;7.03;;;;;;;;;;10187274;28;20109;-64
2022/09/23 06:17:01;;;;;;;9.30;7.15;;;;;;;;;;10176953;28;20487;-64
2022/09/23 06:21:58;;;;;;;8.20;7.32;;;;;;;;;;10178795;28;20048;-63
2022/09/23 06:26:51;;;;;;;21.58;8.65;;;;;;;;;;10186793;28;20055;-63
2022/09/23 06:31:45;;;;;;;9.82;7.35;;;;;;;;;;10185009;28;20052;-63
2022/09/23 06:36:42;;;;;;;10.00;7.20;;;;;;;;;;10186105;28;20047;-63
2022/09/23 06:41:38;;;;;;;;;;;;;;;;;;10177251;28;20048;-61
2022/09/23 06:46:36;;;;;;;15.95;8.15;;;;;;;;;;10153838;28;19920;-63
2022/09/23 06:51:30;;;;;;;9.93;8.18;;;;;;;;;;10169498;28;20050;-63
2022/09/23 06:56:23;;;;;;;9.48;6.68;;;;;;;;;;10155156;28;20442;-63
2022/09/23 07:01:18;;;;;;;7.20;6.50;;;;;;;;;;10147797;28;20087;-64
2022/09/23 07:06:12;;;;;;;5.95;5.35;;;;;;;;;;10183759;28;20105;-64
2022/09/23 07:11:05;;;;;;;8.93;6.35;;;;;;;;;;10186841;28;20083;-64
2022/09/23 07:16:00;;;;;;;9.98;7.70;;;;;;;;;;10187762;28;20056;-64
2022/09/23 07:20:57;;;;;;;9.32;8.32;;;;;;;;;;10188030;28;20056;-64
2022/09/23 07:25:51;;;;;;;9.23;8.32;;;;;;;;;;10153949;28;20055;-64
2022/09/23 07:30:45;;;;;;;11.25;8.45;;;;;;;;;;10174728;28;20132;-64
2022/09/23 07:35:52;;;;;;;11.77;5.60;;;;;;;;;;10176378;28;20135;-64
2022/09/23 07:40:46;;;;;;;8.30;5.22;;;;;;;;;;10147855;28;20052;-64
2022/09/23 07:45:42;;;;;;;6.65;4.13;;;;;;;;;;10148417;28;20048;-64
2022/09/23 07:50:38;;;;;;;7.97;4.40;;;;;;;;;;10186558;28;20036;-61
2022/09/23 07:55:33;;;;;;;9.05;4.35;;;;;;;;;;10170981;28;20466;-61
2022/09/23 08:00:27;;;;;;;7.95;3.85;;;;;;;;;;10164897;28;20045;-62
2022/09/23 08:05:21;;;;;;;8.43;3.70;;;;;;;;;;10169113;28;20048;-61
2022/09/23 08:10:19;;;;;;;6.70;4.03;;;;;;;;;;10158451;28;20068;-61
2022/09/23 08:15:15;;;;;;;4.88;3.50;;;;;;;;;;10181829;28;20055;-61
2022/09/23 08:20:42;;;;;;;4.30;3.42;;;;;;;;;;10167796;28;20126;-62
2022/09/23 08:25:23;;;;;;;4.72;3.38;;;;;;;;;;10184567;28;20491;-64
2022/09/23 08:30:17;;;;;;;6.13;2.90;;;;;;;;;;10160356;28;20562;-62
2022/09/23 08:35:11;;;;;;;4.25;2.78;;;;;;;;;;10117610;28;20143;-62
2022/09/23 08:40:08;;;;;;;7.55;3.50;;;;;;;;;;10122405;28;20052;-62
2022/09/23 08:45:03;;;;;;;3.15;2.75;;;;;;;;;;10141807;28;20059;-63
2022/09/23 08:50:41;;;;;;;6.10;2.55;;;;;;;;;;10135362;28;20071;-63
2022/09/23 08:55:43;;;;;;;6.35;2.88;;;;;;;;;;10067121;28;20110;-63
2022/09/23 09:00:41;;;;;;;7.22;2.90;;;;;;;;;;10119788;28;20056;-63
2022/09/23 09:05:35;;;;;;;6.35;2.70;;;;;;;;;;10125179;28;20052;-64
2022/09/23 09:10:36;;;;;;;7.78;3.90;;;;;;;;;;10118344;28;20091;-66
2022/09/23 09:15:30;;;;;;;10.65;2.40;;;;;;;;;;10116586;28;20507;-69
2022/09/23 09:20:27;;;;;;;6.57;3.35;;;;;;;;;;10142046;28;20071;-63
2022/09/23 09:25:45;;;;;;;6.72;3.45;;;;;;;;;;10140128;28;20140;-63
2022/09/23 09:30:59;;;;;;;7.50;3.00;;;;;;;;;;10175431;28;20055;-65
2022/09/23 09:36:11;;;;;;;4.35;2.40;;;;;;;;;;10169906;28;20571;-65
2022/09/23 09:41:50;;;;;;;4.57;1.92;;;;;;;;;;10153780;28;20048;-65
2022/09/23 09:47:15;;;;;;;5.68;1.55;;;;;;;;;;10172434;28;20084;-67
2022/09/23 09:52:42;;;;;;;4.20;1.40;;;;;;;;;;10182342;28;20043;-67
2022/09/23 09:57:46;;;;;;;2.50;1.48;;;;;;;;;;10157347;28;20048;-66
2022/09/23 10:03:01;;;;;;;6.13;1.33;;;;;;;;;;10172949;28;20473;-65
2022/09/23 10:08:23;;;;;;;2.25;1.02;;;;;;;;;;10142957;28;20036;-66
2022/09/23 10:13:19;;;;;;;2.10;1.30;;;;;;;;;;10190561;28;20059;-66
2022/09/23 10:18:48;;;;;;;7.72;2.40;;;;;;;;;;10143436;28;20072;-66
2022/09/23 10:24:03;;;;;;;0.93;0.90;;;;;;;;;;10184300;28;20406;-66
2022/09/23 10:28:58;;;;;;;4.13;1.50;;;;;;;;;;10186299;28;20085;-66
2022/09/23 10:33:56;;;;;;;3.25;1.48;;;;;;;;;;10167189;28;20445;-66
2022/09/23 10:46:37;;;;;;;2.70;1.40;;;;;;;;;;10169971;28;20098;-66
2022/09/23 10:50:15;;;;;;;4.82;2.10;;;;;;;;;;10188853;28;20521;-65
2022/09/23 10:55:25;;;;;;;2.33;1.55;;;;;;;;;;10189013;28;20483;-65
2022/09/23 11:00:31;;;;;;;2.67;1.50;;;;;;;;;;10181897;28;20044;-65
2022/09/23 11:05:32;;;;;;;2.35;1.70;;;;;;;;;;10185607;28;20044;-65
2022/09/23 11:10:48;;;;;;;4.90;2.35;;;;;;;;;;10156128;28;20575;-64
2022/09/23 11:16:13;;;;;;;7.15;2.28;;;;;;;;;;10185737;28;20048;-65
2022/09/23 11:21:43;;;;;;;4.35;1.85;;;;;;;;;;10171773;28;20502;-65
2022/09/23 11:26:52;;;;;;;4.15;2.17;;;;;;;;;;10115659;28;20127;-65
2022/09/23 11:32:03;;;;;;;5.68;2.22;;;;;;;;;;10164560;28;20079;-63
2022/09/23 11:37:24;;;;;;;3.88;2.08;;;;;;;;;;10157622;28;20433;-65
2022/09/23 11:42:25;;;;;;;;;;;;;;;;;;10157374;28;20049;-66
2022/09/23 11:47:31;;;;;;;3.35;1.92;;;;;;;;;;10184707;28;19924;-64
2022/09/23 11:52:40;;;;;;;2.35;2.00;;;;;;;;;;10171896;28;20097;-65
2022/09/23 11:58:03;;;;;;;3.40;1.77;;;;;;;;;;10177627;28;20051;-66
2022/09/23 12:03:12;;;;;;;1.85;1.65;;;;;;;;;;10169590;28;20056;-64
2022/09/23 12:08:16;;;;;;;2.28;1.67;;;;;;;;;;10166730;28;20098;-64
2022/09/23 12:13:17;;;;;;;3.72;1.50;;;;;;;;;;10151496;28;20064;-65
2022/09/23 12:18:16;;;;;;;1.67;1.42;;;;;;;;;;10151277;28;20406;-66
2022/09/23 12:23:41;;;;;;;1.25;1.15;;;;;;;;;;10163889;28;20233;-63
2022/09/23 12:28:38;;;;;;;6.05;1.52;;;;;;;;;;10155174;28;20048;-65
2022/09/23 12:33:33;;;;;;;2.22;1.33;;;;;;;;;;10157924;28;20052;-62
2022/09/23 12:38:33;;;;;;;2.45;1.58;;;;;;;;;;10168176;28;20079;-62
2022/09/23 12:43:29;;;;;;;2.25;1.48;;;;;;;;;;10158614;28;20633;-63
2022/09/23 12:48:42;;;;;;;6.47;1.00;;;;;;;;;;10187858;28;20074;-63
2022/09/23 12:53:35;;;;;;;3.90;1.60;;;;;;;;;;10190165;28;20493;-64
2022/09/23 12:58:41;;;;;;;2.90;1.48;;;;;;;;;;10162860;28;20060;-64
2022/09/23 13:08:46;;;;;;;1.33;1.10;;;;;;;;;;10173903;28;20052;-64
2022/09/23 13:13:45;;;;;;;2.53;1.02;;;;;;;;;;10158437;28;20053;-63
2022/09/23 13:19:01;;;;;;;1.52;1.13;;;;;;;;;;10154891;28;20040;-64
2022/09/23 13:24:42;;;;;;;2.88;1.50;;;;;;;;;;10178866;28;20132;-63
2022/09/23 13:29:41;;;;;;;4.35;1.17;;;;;;;;;;10062842;28;20064;-64
2022/09/23 13:34:37;;;;;;;3.95;1.17;;;;;;;;;;10133559;28;20047;-62
2022/09/23 13:39:33;;;;;;;1.92;1.20;;;;;;;;;;10134420;28;20431;-63
2022/09/23 13:44:28;;;;;;;2.80;1.00;;;;;;;;;;10136704;28;20369;-64
2022/09/23 13:49:23;;;;;;;3.75;1.30;;;;;;;;;;10112208;28;20071;-65
2022/09/23 13:54:37;;;;;;;2.50;1.30;;;;;;;;;;10110948;28;20065;-64
2022/09/23 13:59:36;;;;;;;4.63;1.27;;;;;;;;;;10131911;28;20049;-65
2022/09/23 14:04:30;;;;;;;1.25;1.00;;;;;;;;;;10124070;28;20053;-64
2022/09/23 14:09:26;;;;;;;1.20;1.10;;;;;;;;;;10112805;28;20056;-64
2022/09/23 14:14:21;;;;;;;2.92;1.40;;;;;;;;;;10114325;28;20064;-66
2022/09/23 14:19:18;;;;;;;3.22;1.20;;;;;;;;;;10135847;28;20044;-64
2022/09/23 14:24:33;;;;;;;2.53;1.20;;;;;;;;;;10116147;28;20520;-65
2022/09/23 14:29:32;;;;;;;2.75;1.35;;;;;;;;;;10132130;28;20106;-66
2022/09/23 14:34:46;;;;;;;2.45;1.00;;;;;;;;;;10173681;28;20056;-66
2022/09/23 14:39:41;;;;;;;1.60;1.50;;;;;;;;;;10181960;28;20062;-66
2022/09/23 14:44:34;;;;;;;1.88;1.60;;;;;;;;;;10174256;28;20064;-65
2022/09/23 14:49:28;;;;;;;3.65;1.38;;;;;;;;;;10172739;28;20487;-66
2022/09/23 14:54:38;;;;;;;1.67;1.23;;;;;;;;;;10162903;28;20052;-66
2022/09/23 14:59:32;;;;;;;1.85;1.02;;;;;;;;;;10174795;28;20059;-65
2022/09/23 15:04:29;;;;;;;3.33;1.10;;;;;;;;;;10174057;28;20052;-65
2022/09/23 15:09:34;;;;;;;1.90;1.40;;;;;;;;;;10163290;28;20078;-65
2022/09/23 15:14:40;;;;;;;1.42;1.20;;;;;;;;;;10132140;28;20056;-64
2022/09/23 15:19:36;;;;;;;1.58;1.20;;;;;;;;;;10164632;28;20044;-65
2022/09/23 15:24:42;;;;;;;3.30;1.50;;;;;;;;;;10176284;28;20040;-65
2022/09/23 15:29:35;;;;;;;1.70;1.20;;;;;;;;;;10147138;28;20049;-68
2022/09/23 15:34:29;;;;;;;4.00;1.30;;;;;;;;;;10146958;28;20068;-68
2022/09/23 15:39:23;;;;;;;3.80;1.25;;;;;;;;;;10145624;28;20048;-67
2022/09/23 15:44:28;;;;;;;3.20;1.05;;;;;;;;;;10134164;28;20094;-66
2022/09/23 15:49:28;;;;;;;4.15;2.13;;;;;;;;;;10146279;28;20132;-66
2022/09/23 15:54:23;;;;;;;1.10;1.00;;;;;;;;;;10134497;28;20131;-69
2022/09/23 15:59:18;;;;;;;5.95;1.80;;;;;;;;;;10144564;28;20052;-68
2022/09/23 16:04:15;;;;;;;1.73;1.10;;;;;;;;;;10122620;28;20051;-67
2022/09/23 16:09:11;;;;;;;6.82;1.13;;;;;;;;;;10145310;28;20510;-68
2022/09/23 16:14:13;;;;;;;4.90;1.40;;;;;;;;;;10136692;28;20059;-68
2022/09/23 16:19:07;;;;;;;4.15;1.30;;;;;;;;;;10144818;28;20044;-68
2022/09/23 16:24:01;;;;;;;6.32;1.45;;;;;;;;;;10146945;28;20083;-68
2022/09/23 16:28:55;;;;;;;4.10;1.42;;;;;;;;;;10127931;28;20131;-68
2022/09/23 16:33:50;;;;;;;6.60;1.30;;;;;;;;;;10145902;28;20052;-68
2022/09/23 16:38:43;;;;;;;4.68;1.40;;;;;;;;;;10146412;28;20037;-68
2022/09/23 16:43:40;;;;;;;1.50;1.13;;;;;;;;;;10145583;28;20063;-68
2022/09/23 16:48:36;;;;;;;4.78;1.60;;;;;;;;;;10145849;28;20071;-68
2022/09/23 16:53:30;;;;;;;1.40;1.30;;;;;;;;;;10145451;28;20067;-68
2022/09/23 16:58:24;;;;;;;4.38;1.70;;;;;;;;;;10145509;28;20044;-68
2022/09/23 17:08:30;;;;;;;5.57;1.73;;;;;;;;;;10152234;28;20515;-68
2022/09/23 17:13:34;;;;;;;6.35;1.70;;;;;;;;;;10152468;28;20053;-68
2022/09/23 17:18:31;;;;;;;3.65;1.83;;;;;;;;;;10151718;28;20136;-64
2022/09/23 17:23:27;;;;;;;1.25;1.15;;;;;;;;;;10151984;28;20048;-66
2022/09/23 17:28:20;;;;;;;2.15;1.35;;;;;;;;;;10150220;28;20499;-63
2022/09/23 17:33:14;;;;;;;6.38;1.42;;;;;;;;;;10151714;28;20400;-63
2022/09/23 17:38:08;;;;;;;6.28;1.63;;;;;;;;;;10143038;28;20052;-65
2022/09/23 17:43:02;;;;;;;2.83;1.63;;;;;;;;;;10141939;28;20079;-63
2022/09/23 17:47:56;;;;;;;3.67;1.73;;;;;;;;;;10136308;28;20567;-61
2022/09/23 17:52:50;;;;;;;4.93;1.70;;;;;;;;;;10139664;28;20502;-62
2022/09/23 17:57:44;;;;;;;4.63;1.60;;;;;;;;;;10146242;28;20072;-61
2022/09/23 18:02:38;;;;;;;7.53;3.10;;;;;;;;;;10144623;28;20137;-59
2022/09/23 18:07:32;;;;;;;11.77;6.68;;;;;;;;;;10139786;28;20055;-61
2022/09/23 18:12:27;;;;;;;10.85;4.65;;;;;;;;;;10138697;28;20447;-62
2022/09/23 18:17:20;;;;;;;31.23;5.10;;;;;;;;;;10139484;28;20073;-60
2022/09/23 18:22:14;;;;;;;16.27;5.13;;;;;;;;;;10134798;28;20455;-62
2022/09/23 18:27:10;;;;;;;13.25;5.65;;;;;;;;;;10126936;28;20056;-61
2022/09/23 18:32:05;;;;;;;13.10;3.50;;;;;;;;;;10176775;28;20052;-61
2022/09/23 18:37:05;;;;;;;7.78;3.15;;;;;;;;;;10172257;28;20056;-62
2022/09/23 18:42:08;;;;;;;7.15;2.50;;;;;;;;;;10179039;28;20392;-63
2022/09/23 18:47:02;;;;;;;7.95;3.13;;;;;;;;;;10174341;28;20052;-61
2022/09/23 18:51:57;;;;;;;6.15;2.13;;;;;;;;;;10167354;28;20053;-61
2022/09/23 18:56:51;;;;;;;6.80;2.45;;;;;;;;;;10175587;28;20051;-60
2022/09/23 19:01:47;;;;;;;7.55;2.35;;;;;;;;;;10164815;28;20052;-65
2022/09/23 19:06:40;;;;;;;6.80;2.40;;;;;;;;;;10174110;28;20063;-64
2022/09/23 19:11:35;;;;;;;6.22;2.83;;;;;;;;;;10163555;28;20410;-65
2022/09/23 19:16:30;;;;;;;6.57;2.67;;;;;;;;;;10170306;28;20048;-67
2022/09/23 19:21:25;;;;;;;3.65;2.55;;;;;;;;;;10164881;28;20048;-65
2022/09/23 19:26:23;;;;;;;3.25;2.53;;;;;;;;;;10170830;28;20044;-63
2022/09/23 19:31:21;;;;;;;4.07;2.83;;;;;;;;;;10170375;28;20136;-62
2022/09/23 19:36:15;;;;;;;13.05;3.30;;;;;;;;;;10151124;28;20411;-63
2022/09/23 19:41:10;;;;;;;8.55;3.17;;;;;;;;;;10173042;28;20040;-67
2022/09/23 19:46:05;;;;;;;4.75;3.08;;;;;;;;;;10170039;28;20052;-62
2022/09/23 19:51:01;;;;;;;10.63;2.95;;;;;;;;;;10172395;28;20059;-64
2022/09/23 19:55:55;;;;;;;5.43;2.95;;;;;;;;;;10169732;28;20075;-65
2022/09/23 20:00:50;;;;;;;5.63;2.88;;;;;;;;;;10166421;28;20139;-61
2022/09/23 20:05:44;;;;;;;5.65;3.03;;;;;;;;;;10170356;28;20107;-65
2022/09/23 20:10:39;;;;;;;15.43;3.58;;;;;;;;;;10168342;28;20075;-70
2022/09/23 20:15:33;;;;;;;8.13;3.05;;;;;;;;;;10172464;28;20074;-70
2022/09/23 20:20:27;;;;;;;3.00;2.60;;;;;;;;;;10181481;28;20059;-69
2022/09/23 20:25:21;;;;;;;3.20;2.05;;;;;;;;;;10165992;28;20071;-69
2022/09/23 20:30:16;;;;;;;5.68;3.63;;;;;;;;;;10177938;28;20068;-70
2022/09/23 20:35:10;;;;;;;6.93;2.60;;;;;;;;;;10179337;28;20048;-74
2022/09/23 20:40:07;;;;;;;7.40;2.85;;;;;;;;;;10173388;28;20032;-71
2022/09/23 20:45:01;;;;;;;9.60;3.08;;;;;;;;;;10178398;28;20127;-71
2022/09/23 20:50:04;;;;;;;6.63;3.25;;;;;;;;;;10175549;28;20048;-70
2022/09/23 20:55:01;;;;;;;8.15;3.90;;;;;;;;;;10181537;28;20048;-70
2022/09/23 20:59:57;;;;;;;3.97;2.60;;;;;;;;;;10171256;28;20048;-72
2022/09/23 21:04:52;;;;;;;3.30;2.80;;;;;;;;;;10181083;28;20109;-70
2022/09/23 21:09:47;;;;;;;6.22;3.05;;;;;;;;;;10182409;28;20067;-71
2022/09/23 21:14:42;;;;;;;5.85;2.80;;;;;;;;;;10182840;28;20053;-71
2022/09/23 21:19:38;;;;;;;7.72;2.78;;;;;;;;;;10180296;28;20048;-73
2022/09/23 21:24:32;;;;;;;2.53;2.33;;;;;;;;;;10180008;28;20130;-72
2022/09/23 21:29:46;;;;;;;5.22;2.72;;;;;;;;;;10180961;28;20074;-73
2022/09/23 21:34:41;;;;;;;3.30;2.50;;;;;;;;;;10170254;28;20502;-73
2022/09/23 21:39:36;;;;;;;6.70;3.13;;;;;;;;;;10183292;28;20048;-73
2022/09/23 21:44:30;;;;;;;4.07;3.00;;;;;;;;;;10180146;28;20044;-75
2022/09/23 21:49:27;;;;;;;10.15;2.67;;;;;;;;;;10179331;28;20048;-76
2022/09/23 21:54:22;;;;;;;3.92;2.45;;;;;;;;;;10182511;28;20054;-75
2022/09/23 21:59:20;;;;;;;3.97;2.83;;;;;;;;;;10183374;28;20097;-76
2022/09/23 22:04:16;;;;;;;4.25;2.40;;;;;;;;;;10177685;28;20513;-75
2022/09/23 22:09:15;;;;;;;5.28;2.85;;;;;;;;;;10176427;28;20056;-74
2022/09/23 22:14:13;;;;;;;6.30;2.95;;;;;;;;;;10180026;28;20044;-75
2022/09/23 22:19:12;;;;;;;5.00;2.90;;;;;;;;;;10176449;28;20067;-71
2022/09/23 22:24:08;;;;;;;6.15;2.75;;;;;;;;;;10178521;28;20056;-71
2022/09/23 22:34:14;;;;;;;4.43;3.40;;;;;;;;;;10189173;28;20051;-69
2022/09/23 22:39:29;;;;;;;6.10;2.83;;;;;;;;;;10185840;28;20083;-70
2022/09/23 22:44:24;;;;;;;4.70;2.90;;;;;;;;;;10189601;28;20052;-71
2022/09/23 22:49:18;;;;;;;3.42;3.13;;;;;;;;;;10187613;28;20059;-70
2022/09/23 22:54:12;;;;;;;4.70;3.70;;;;;;;;;;10188507;28;20055;-71
2022/09/23 22:59:07;;;;;;;3.42;3.13;;;;;;;;;;10174758;28;20069;-71
2022/09/23 23:04:02;;;;;;;7.72;3.92;;;;;;;;;;10186373;28;20514;-70
2022/09/23 23:08:58;;;;;;;6.28;4.53;;;;;;;;;;10173319;28;20507;-70
2022/09/23 23:13:52;;;;;;;7.32;3.70;;;;;;;;;;10165835;28;20060;-71
2022/09/23 23:18:46;;;;;;;9.82;3.25;;;;;;;;;;10178702;28;20052;-70
2022/09/23 23:23:42;;;;;;;3.72;3.30;;;;;;;;;;10176143;28;20044;-71
2022/09/23 23:28:38;;;;;;;9.45;3.83;;;;;;;;;;10160774;28;20060;-71
2022/09/23 23:33:32;;;;;;;5.68;3.80;;;;;;;;;;10127088;28;20087;-70
2022/09/23 23:38:26;;;;;;;4.75;3.75;;;;;;;;;;10110563;28;20056;-70
2022/09/23 23:43:20;;;;;;;3.97;3.58;;;;;;;;;;10137807;28;20048;-71
2022/09/23 23:48:13;;;;;;;3.92;3.53;;;;;;;;;;10129147;28;20454;-72
2022/09/23 23:53:10;;;;;;;10.98;5.00;;;;;;;;;;10125268;28;20135;-72
2022/09/23 23:58:04;;;;;;;3.85;2.88;;;;;;;;;;10146877;28;20048;-72
